sensor_id;sensor_type;location;lat;lon;timestamp;pressure;altitude;pressure_sealevel;temperature;humidity
83815;BME280;73829;53.826;-3.034;2024-01-30T00:01:35;101537.33;;;18.15;54.23
83815;BME280;73829;53.826;-3.034;2024-01-30T00:04:06;101540.52;;;18.14;54.04
83815;BME280;73829;53.826;-3.034;2024-01-30T00:06:37;101543.17;;;18.13;54.22
83815;BME280;73829;53.826;-3.034;2024-01-30T00:09:06;101544.24;;;18.13;54.28
83815;BME280;73829;53.826;-3.034;2024-01-30T00:11:38;101545.77;;;18.14;54.17
83815;BME280;73829;53.826;-3.034;2024-01-30T00:14:09;101547.58;;;18.13;54.18
83815;BME280;73829;53.826;-3.034;2024-01-30T00:16:40;101552.73;;;18.12;53.97
83815;BME280;73829;53.826;-3.034;2024-01-30T00:19:11;101556.80;;;18.11;54.20
83815;BME280;73829;53.826;-3.034;2024-01-30T00:21:42;101558.59;;;18.10;54.27
83815;BME280;73829;53.826;-3.034;2024-01-30T00:24:13;101559.85;;;18.09;54.08
83815;BME280;73829;53.826;-3.034;2024-01-30T00:26:44;101558.99;;;18.08;54.19
83815;BME280;73829;53.826;-3.034;2024-01-30T00:29:16;101562.02;;;18.07;54.04
83815;BME280;73829;53.826;-3.034;2024-01-30T00:31:49;101566.43;;;18.07;54.02
83815;BME280;73829;53.826;-3.034;2024-01-30T00:34:20;101568.36;;;18.07;54.20
83815;BME280;73829;53.826;-3.034;2024-01-30T00:36:51;101572.62;;;18.06;54.14
83815;BME280;73829;53.826;-3.034;2024-01-30T00:39:22;101578.64;;;18.05;54.12
83815;BME280;73829;53.826;-3.034;2024-01-30T00:41:53;101571.06;;;18.05;54.14
83815;BME280;73829;53.826;-3.034;2024-01-30T00:44:24;101564.38;;;18.05;54.05
83815;BME280;73829;53.826;-3.034;2024-01-30T00:46:55;101567.77;;;18.04;54.13
83815;BME280;73829;53.826;-3.034;2024-01-30T00:49:26;101565.83;;;18.04;54.08
83815;BME280;73829;53.826;-3.034;2024-01-30T00:51:57;101570.77;;;18.04;53.93
83815;BME280;73829;53.826;-3.034;2024-01-30T00:54:28;101575.37;;;18.03;53.99
83815;BME280;73829;53.826;-3.034;2024-01-30T00:56:59;101573.45;;;18.02;53.98
83815;BME280;73829;53.826;-3.034;2024-01-30T00:59:30;101574.17;;;18.02;54.21
83815;BME280;73829;53.826;-3.034;2024-01-30T01:02:01;101576.46;;;18.01;54.05
83815;BME280;73829;53.826;-3.034;2024-01-30T01:04:32;101580.00;;;18.01;53.93
83815;BME280;73829;53.826;-3.034;2024-01-30T01:07:03;101575.48;;;17.99;54.03
83815;BME280;73829;53.826;-3.034;2024-01-30T01:09:34;101581.45;;;17.99;54.04
83815;BME280;73829;53.826;-3.034;2024-01-30T01:12:06;101582.03;;;17.98;54.17
83815;BME280;73829;53.826;-3.034;2024-01-30T01:14:37;101581.50;;;17.98;54.10
83815;BME280;73829;53.826;-3.034;2024-01-30T01:17:08;101587.87;;;17.97;53.99
83815;BME280;73829;53.826;-3.034;2024-01-30T01:19:39;101593.87;;;17.96;54.01
83815;BME280;73829;53.826;-3.034;2024-01-30T01:22:10;101594.41;;;17.96;54.05
83815;BME280;73829;53.826;-3.034;2024-01-30T01:24:41;101600.05;;;17.96;53.94
83815;BME280;73829;53.826;-3.034;2024-01-30T01:27:13;101601.31;;;17.95;53.83
83815;BME280;73829;53.826;-3.034;2024-01-30T01:29:44;101606.60;;;17.95;54.06
83815;BME280;73829;53.826;-3.034;2024-01-30T01:32:13;101608.05;;;17.93;54.03
83815;BME280;73829;53.826;-3.034;2024-01-30T01:34:44;101620.15;;;17.95;53.85
83815;BME280;73829;53.826;-3.034;2024-01-30T01:37:15;101626.16;;;17.94;53.86
83815;BME280;73829;53.826;-3.034;2024-01-30T01:39:45;101623.92;;;17.92;54.00
83815;BME280;73829;53.826;-3.034;2024-01-30T01:42:16;101629.16;;;17.94;53.85
83815;BME280;73829;53.826;-3.034;2024-01-30T01:44:47;101632.91;;;17.92;53.81
83815;BME280;73829;53.826;-3.034;2024-01-30T01:47:18;101637.17;;;17.91;54.02
83815;BME280;73829;53.826;-3.034;2024-01-30T01:49:49;101641.95;;;17.90;53.95
83815;BME280;73829;53.826;-3.034;2024-01-30T01:52:20;101643.39;;;17.89;53.88
83815;BME280;73829;53.826;-3.034;2024-01-30T01:54:51;101640.42;;;17.89;53.99
83815;BME280;73829;53.826;-3.034;2024-01-30T01:57:22;101641.85;;;17.88;54.09
83815;BME280;73829;53.826;-3.034;2024-01-30T01:59:54;101643.44;;;17.88;53.94
83815;BME280;73829;53.826;-3.034;2024-01-30T02:02:26;101648.56;;;17.86;53.88
83815;BME280;73829;53.826;-3.034;2024-01-30T02:04:58;101655.61;;;17.87;53.92
83815;BME280;73829;53.826;-3.034;2024-01-30T02:07:29;101659.69;;;17.86;54.07
83815;BME280;73829;53.826;-3.034;2024-01-30T02:10:00;101661.27;;;17.86;53.79
83815;BME280;73829;53.826;-3.034;2024-01-30T02:12:33;101665.34;;;17.85;54.01
83815;BME280;73829;53.826;-3.034;2024-01-30T02:15:05;101670.62;;;17.85;53.87
83815;BME280;73829;53.826;-3.034;2024-01-30T02:17:37;101673.80;;;17.84;53.84
83815;BME280;73829;53.826;-3.034;2024-01-30T02:20:12;101676.09;;;17.84;54.00
83815;BME280;73829;53.826;-3.034;2024-01-30T02:22:45;101676.48;;;17.83;53.94
83815;BME280;73829;53.826;-3.034;2024-01-30T02:25:16;101680.69;;;17.83;53.81
83815;BME280;73829;53.826;-3.034;2024-01-30T02:27:48;101681.27;;;17.82;53.69
83815;BME280;73829;53.826;-3.034;2024-01-30T02:30:19;101685.15;;;17.81;53.95
83815;BME280;73829;53.826;-3.034;2024-01-30T02:32:50;101695.54;;;17.82;54.02
83815;BME280;73829;53.826;-3.034;2024-01-30T02:35:21;101694.66;;;17.81;53.74
83815;BME280;73829;53.826;-3.034;2024-01-30T02:37:52;101692.56;;;17.81;53.73
83815;BME280;73829;53.826;-3.034;2024-01-30T02:40:21;101702.42;;;17.80;53.83
83815;BME280;73829;53.826;-3.034;2024-01-30T02:42:52;101706.09;;;17.81;53.67
83815;BME280;73829;53.826;-3.034;2024-01-30T02:45:23;101709.45;;;17.81;53.78
83815;BME280;73829;53.826;-3.034;2024-01-30T02:47:52;101715.50;;;17.79;53.93
83815;BME280;73829;53.826;-3.034;2024-01-30T02:50:23;101716.33;;;17.80;53.77
83815;BME280;73829;53.826;-3.034;2024-01-30T02:52:54;101717.27;;;17.78;53.77
83815;BME280;73829;53.826;-3.034;2024-01-30T02:55:25;101722.38;;;17.78;53.66
83815;BME280;73829;53.826;-3.034;2024-01-30T02:57:57;101721.72;;;17.76;53.73
83815;BME280;73829;53.826;-3.034;2024-01-30T03:00:28;101725.07;;;17.76;53.70
83815;BME280;73829;53.826;-3.034;2024-01-30T03:02:59;101731.06;;;17.75;53.86
83815;BME280;73829;53.826;-3.034;2024-01-30T03:05:31;101731.96;;;17.75;53.78
83815;BME280;73829;53.826;-3.034;2024-01-30T03:08:03;101730.91;;;17.74;53.71
83815;BME280;73829;53.826;-3.034;2024-01-30T03:10:34;101738.13;;;17.74;53.90
83815;BME280;73829;53.826;-3.034;2024-01-30T03:13:06;101735.49;;;17.73;53.75
83815;BME280;73829;53.826;-3.034;2024-01-30T03:15:37;101740.25;;;17.74;53.67
83815;BME280;73829;53.826;-3.034;2024-01-30T03:18:08;101739.73;;;17.73;53.76
83815;BME280;73829;53.826;-3.034;2024-01-30T03:20:39;101745.56;;;17.73;53.69
83815;BME280;73829;53.826;-3.034;2024-01-30T03:23:10;101751.21;;;17.72;53.69
83815;BME280;73829;53.826;-3.034;2024-01-30T03:25:41;101753.68;;;17.72;53.78
83815;BME280;73829;53.826;-3.034;2024-01-30T03:28:12;101758.08;;;17.71;53.83
83815;BME280;73829;53.826;-3.034;2024-01-30T03:30:43;101759.15;;;17.71;53.73
83815;BME280;73829;53.826;-3.034;2024-01-30T03:33:14;101758.45;;;17.71;53.60
83815;BME280;73829;53.826;-3.034;2024-01-30T03:35:45;101764.80;;;17.70;53.67
83815;BME280;73829;53.826;-3.034;2024-01-30T03:38:16;101771.52;;;17.70;53.69
83815;BME280;73829;53.826;-3.034;2024-01-30T03:40:47;101771.54;;;17.69;53.62
83815;BME280;73829;53.826;-3.034;2024-01-30T03:43:16;101781.20;;;17.69;53.67
83815;BME280;73829;53.826;-3.034;2024-01-30T03:45:47;101788.20;;;17.71;53.50
83815;BME280;73829;53.826;-3.034;2024-01-30T03:48:19;101792.63;;;17.70;53.53
83815;BME280;73829;53.826;-3.034;2024-01-30T03:50:50;101797.94;;;17.69;53.77
83815;BME280;73829;53.826;-3.034;2024-01-30T03:53:23;101802.89;;;17.68;53.70
83815;BME280;73829;53.826;-3.034;2024-01-30T03:55:54;101803.45;;;17.67;53.54
83815;BME280;73829;53.826;-3.034;2024-01-30T03:58:25;101810.67;;;17.66;53.51
83815;BME280;73829;53.826;-3.034;2024-01-30T04:00:56;101819.66;;;17.66;53.59
83815;BME280;73829;53.826;-3.034;2024-01-30T04:03:25;101828.64;;;17.66;53.66
83815;BME280;73829;53.826;-3.034;2024-01-30T04:05:56;101836.69;;;17.67;53.54
83815;BME280;73829;53.826;-3.034;2024-01-30T04:08:27;101845.70;;;17.66;53.52
83815;BME280;73829;53.826;-3.034;2024-01-30T04:10:58;101850.48;;;17.65;53.49
83815;BME280;73829;53.826;-3.034;2024-01-30T04:13:29;101849.46;;;17.64;53.52
83815;BME280;73829;53.826;-3.034;2024-01-30T04:16:02;101855.63;;;17.63;53.62
83815;BME280;73829;53.826;-3.034;2024-01-30T04:22:13;101864.79;;;17.63;53.42
83815;BME280;73829;53.826;-3.034;2024-01-30T04:24:44;101863.59;;;17.61;53.54
83815;BME280;73829;53.826;-3.034;2024-01-30T04:27:16;101871.33;;;17.61;53.64
83815;BME280;73829;53.826;-3.034;2024-01-30T04:29:47;101877.33;;;17.60;53.45
83815;BME280;73829;53.826;-3.034;2024-01-30T04:32:18;101886.86;;;17.59;53.56
83815;BME280;73829;53.826;-3.034;2024-01-30T04:34:49;101888.27;;;17.59;53.58
83815;BME280;73829;53.826;-3.034;2024-01-30T04:37:20;101896.02;;;17.59;53.61
83815;BME280;73829;53.826;-3.034;2024-01-30T04:39:51;101903.77;;;17.58;53.49
83815;BME280;73829;53.826;-3.034;2024-01-30T04:42:22;101906.23;;;17.58;53.59
83815;BME280;73829;53.826;-3.034;2024-01-30T04:44:53;101911.00;;;17.57;53.57
83815;BME280;73829;53.826;-3.034;2024-01-30T04:47:24;101918.40;;;17.57;53.42
83815;BME280;73829;53.826;-3.034;2024-01-30T04:49:55;101921.05;;;17.57;53.49
83815;BME280;73829;53.826;-3.034;2024-01-30T04:52:26;101929.16;;;17.56;53.46
83815;BME280;73829;53.826;-3.034;2024-01-30T04:54:58;101934.45;;;17.56;53.47
83815;BME280;73829;53.826;-3.034;2024-01-30T04:57:29;101942.20;;;17.56;53.48
83815;BME280;73829;53.826;-3.034;2024-01-30T05:00:01;101950.48;;;17.56;53.50
83815;BME280;73829;53.826;-3.034;2024-01-30T05:02:33;101956.29;;;17.55;53.24
83815;BME280;73829;53.826;-3.034;2024-01-30T05:05:04;101956.66;;;17.55;53.36
83815;BME280;73829;53.826;-3.034;2024-01-30T05:07:35;101955.59;;;17.54;53.40
83815;BME280;73829;53.826;-3.034;2024-01-30T05:10:07;101955.08;;;17.54;53.49
83815;BME280;73829;53.826;-3.034;2024-01-30T05:12:40;101960.18;;;17.54;53.42
83815;BME280;73829;53.826;-3.034;2024-01-30T05:15:11;101966.34;;;17.54;53.43
83815;BME280;73829;53.826;-3.034;2024-01-30T05:17:43;101970.40;;;17.53;53.43
83815;BME280;73829;53.826;-3.034;2024-01-30T05:20:20;101978.87;;;17.53;53.42
83815;BME280;73829;53.826;-3.034;2024-01-30T05:22:50;101988.02;;;17.52;53.49
83815;BME280;73829;53.826;-3.034;2024-01-30T05:25:22;101994.33;;;17.53;53.33
83815;BME280;73829;53.826;-3.034;2024-01-30T05:27:53;102000.88;;;17.52;53.40
83815;BME280;73829;53.826;-3.034;2024-01-30T05:30:25;102001.06;;;17.51;53.40
83815;BME280;73829;53.826;-3.034;2024-01-30T05:32:56;102001.09;;;17.50;53.39
83815;BME280;73829;53.826;-3.034;2024-01-30T05:35:28;102011.48;;;17.50;53.37
83815;BME280;73829;53.826;-3.034;2024-01-30T05:38:00;102020.48;;;17.49;53.53
83815;BME280;73829;53.826;-3.034;2024-01-30T05:40:31;102028.04;;;17.49;53.45
83815;BME280;73829;53.826;-3.034;2024-01-30T05:43:02;102036.51;;;17.48;53.37
83815;BME280;73829;53.826;-3.034;2024-01-30T05:45:33;102045.13;;;17.48;53.38
83815;BME280;73829;53.826;-3.034;2024-01-30T05:48:05;102055.69;;;17.47;53.50
83815;BME280;73829;53.826;-3.034;2024-01-30T05:50:36;102064.31;;;17.47;53.35
83815;BME280;73829;53.826;-3.034;2024-01-30T05:53:07;102070.13;;;17.47;53.45
83815;BME280;73829;53.826;-3.034;2024-01-30T05:55:40;102077.70;;;17.46;53.35
83815;BME280;73829;53.826;-3.034;2024-01-30T05:58:11;102074.21;;;17.45;53.38
83815;BME280;73829;53.826;-3.034;2024-01-30T06:00:42;102080.90;;;17.46;53.44
83815;BME280;73829;53.826;-3.034;2024-01-30T06:03:13;102091.46;;;17.45;53.27
83815;BME280;73829;53.826;-3.034;2024-01-30T06:05:44;102097.98;;;17.45;53.38
83815;BME280;73829;53.826;-3.034;2024-01-30T06:08:15;102102.02;;;17.45;53.40
83815;BME280;73829;53.826;-3.034;2024-01-30T06:10:46;102103.08;;;17.44;53.47
83815;BME280;73829;53.826;-3.034;2024-01-30T06:13:18;102105.55;;;17.44;53.47
83815;BME280;73829;53.826;-3.034;2024-01-30T06:15:50;102115.94;;;17.44;53.25
83815;BME280;73829;53.826;-3.034;2024-01-30T06:18:21;102124.05;;;17.43;53.31
83815;BME280;73829;53.826;-3.034;2024-01-30T06:20:52;102131.80;;;17.42;53.34
83815;BME280;73829;53.826;-3.034;2024-01-30T06:23:23;102140.42;;;17.42;53.40
83815;BME280;73829;53.826;-3.034;2024-01-30T06:25:54;102147.46;;;17.42;53.27
83815;BME280;73829;53.826;-3.034;2024-01-30T06:28:25;102149.41;;;17.41;53.35
83815;BME280;73829;53.826;-3.034;2024-01-30T06:30:56;102153.46;;;17.41;53.22
83815;BME280;73829;53.826;-3.034;2024-01-30T06:33:27;102158.91;;;17.41;53.30
83815;BME280;73829;53.826;-3.034;2024-01-30T06:35:58;102161.92;;;17.40;53.49
83815;BME280;73829;53.826;-3.034;2024-01-30T06:38:30;102169.49;;;17.40;53.32
83815;BME280;73829;53.826;-3.034;2024-01-30T06:41:01;102172.14;;;17.40;53.22
83815;BME280;73829;53.826;-3.034;2024-01-30T06:43:32;102178.67;;;17.39;53.21
83815;BME280;73829;53.826;-3.034;2024-01-30T06:46:03;102186.77;;;17.38;53.25
83815;BME280;73829;53.826;-3.034;2024-01-30T06:48:34;102192.40;;;17.38;53.29
83815;BME280;73829;53.826;-3.034;2024-01-30T06:51:06;102203.30;;;17.38;53.18
83815;BME280;73829;53.826;-3.034;2024-01-30T06:53:37;102206.83;;;17.37;53.25
83815;BME280;73829;53.826;-3.034;2024-01-30T06:56:09;102214.94;;;17.37;53.29
83815;BME280;73829;53.826;-3.034;2024-01-30T06:58:40;102220.91;;;17.37;53.25
83815;BME280;73829;53.826;-3.034;2024-01-30T07:01:11;102220.59;;;17.36;53.17
83815;BME280;73829;53.826;-3.034;2024-01-30T07:03:42;102226.74;;;17.35;53.19
83815;BME280;73829;53.826;-3.034;2024-01-30T07:06:13;102230.27;;;17.36;53.22
83815;BME280;73829;53.826;-3.034;2024-01-30T07:08:44;102236.08;;;17.35;53.28
83815;BME280;73829;53.826;-3.034;2024-01-30T07:11:21;102241.88;;;17.35;53.20
83815;BME280;73829;53.826;-3.034;2024-01-30T07:13:52;102242.59;;;17.35;53.32
83815;BME280;73829;53.826;-3.034;2024-01-30T07:16:23;102243.46;;;17.36;53.20
83815;BME280;73829;53.826;-3.034;2024-01-30T07:18:54;102253.86;;;17.34;53.21
83815;BME280;73829;53.826;-3.034;2024-01-30T07:21:26;102254.41;;;17.33;53.26
83815;BME280;73829;53.826;-3.034;2024-01-30T07:23:58;102255.84;;;17.32;53.12
83815;BME280;73829;53.826;-3.034;2024-01-30T07:26:30;102265.52;;;17.31;53.27
83815;BME280;73829;53.826;-3.034;2024-01-30T07:29:01;102272.55;;;17.31;53.32
83815;BME280;73829;53.826;-3.034;2024-01-30T07:31:33;102283.29;;;17.31;53.28
83815;BME280;73829;53.826;-3.034;2024-01-30T07:34:04;102292.46;;;17.30;53.22
83815;BME280;73829;53.826;-3.034;2024-01-30T07:36:35;102299.73;;;17.27;53.44
83815;BME280;73829;53.826;-3.034;2024-01-30T07:39:06;102304.86;;;17.24;53.67
83815;BME280;73829;53.826;-3.034;2024-01-30T07:41:37;102303.67;;;17.22;53.75
83815;BME280;73829;53.826;-3.034;2024-01-30T07:44:08;102312.11;;;17.22;53.85
83815;BME280;73829;53.826;-3.034;2024-01-30T07:46:41;102318.63;;;17.21;53.94
83815;BME280;73829;53.826;-3.034;2024-01-30T07:49:12;102326.92;;;17.20;53.94
83815;BME280;73829;53.826;-3.034;2024-01-30T07:51:44;102333.44;;;17.20;54.06
83815;BME280;73829;53.826;-3.034;2024-01-30T07:54:16;102338.37;;;17.20;54.24
83815;BME280;73829;53.826;-3.034;2024-01-30T07:56:47;102342.95;;;17.19;54.33
83815;BME280;73829;53.826;-3.034;2024-01-30T07:59:19;102348.93;;;17.19;54.45
83815;BME280;73829;53.826;-3.034;2024-01-30T08:01:54;102348.05;;;17.19;54.41
83815;BME280;73829;53.826;-3.034;2024-01-30T08:04:25;102353.87;;;17.17;54.51
83815;BME280;73829;53.826;-3.034;2024-01-30T08:06:57;102363.02;;;17.17;54.50
83815;BME280;73829;53.826;-3.034;2024-01-30T08:09:28;102371.12;;;17.17;54.52
83815;BME280;73829;53.826;-3.034;2024-01-30T08:11:59;102374.48;;;17.15;54.92
83815;BME280;73829;53.826;-3.034;2024-01-30T08:14:31;102380.13;;;17.14;54.82
83815;BME280;73829;53.826;-3.034;2024-01-30T08:17:02;102391.05;;;17.12;54.87
83815;BME280;73829;53.826;-3.034;2024-01-30T08:19:33;102398.30;;;17.09;54.90
83815;BME280;73829;53.826;-3.034;2024-01-30T08:22:05;102410.61;;;17.09;54.62
83815;BME280;73829;53.826;-3.034;2024-01-30T08:24:36;102411.86;;;17.09;54.82
83815;BME280;73829;53.826;-3.034;2024-01-30T08:27:07;102413.98;;;17.07;55.07
83815;BME280;73829;53.826;-3.034;2024-01-30T08:29:39;102420.46;;;17.08;54.94
83815;BME280;73829;53.826;-3.034;2024-01-30T08:32:10;102429.39;;;17.11;55.06
83815;BME280;73829;53.826;-3.034;2024-01-30T08:34:42;102432.20;;;17.12;54.95
83815;BME280;73829;53.826;-3.034;2024-01-30T08:37:13;102431.31;;;17.13;55.01
83815;BME280;73829;53.826;-3.034;2024-01-30T08:39:46;102436.95;;;17.12;55.08
83815;BME280;73829;53.826;-3.034;2024-01-30T08:42:17;102445.92;;;17.12;55.22
83815;BME280;73829;53.826;-3.034;2024-01-30T08:44:53;102453.14;;;17.12;55.35
83815;BME280;73829;53.826;-3.034;2024-01-30T08:47:25;102458.77;;;17.12;55.22
83815;BME280;73829;53.826;-3.034;2024-01-30T08:49:56;102463.67;;;17.13;55.54
83815;BME280;73829;53.826;-3.034;2024-01-30T08:52:27;102472.80;;;17.14;55.50
83815;BME280;73829;53.826;-3.034;2024-01-30T08:54:58;102482.47;;;17.15;55.34
83815;BME280;73829;53.826;-3.034;2024-01-30T08:57:29;102489.84;;;17.15;55.48
83815;BME280;73829;53.826;-3.034;2024-01-30T09:00:00;102504.96;;;17.16;55.68
83815;BME280;73829;53.826;-3.034;2024-01-30T09:02:36;102518.14;;;17.17;55.54
83815;BME280;73829;53.826;-3.034;2024-01-30T09:05:08;102520.59;;;17.18;55.85
83815;BME280;73829;53.826;-3.034;2024-01-30T09:07:39;102521.65;;;17.19;55.73
83815;BME280;73829;53.826;-3.034;2024-01-30T09:10:10;102527.95;;;17.20;55.65
83815;BME280;73829;53.826;-3.034;2024-01-30T09:12:41;102530.21;;;17.21;55.72
83815;BME280;73829;53.826;-3.034;2024-01-30T09:15:13;102535.48;;;17.22;55.90
83815;BME280;73829;53.826;-3.034;2024-01-30T09:17:45;102536.00;;;17.23;55.75
83815;BME280;73829;53.826;-3.034;2024-01-30T09:20:18;102534.94;;;17.24;55.79
83815;BME280;73829;53.826;-3.034;2024-01-30T09:22:51;102542.84;;;17.25;55.75
83815;BME280;73829;53.826;-3.034;2024-01-30T09:25:22;102546.54;;;17.25;55.83
83815;BME280;73829;53.826;-3.034;2024-01-30T09:27:54;102553.91;;;17.26;55.78
83815;BME280;73829;53.826;-3.034;2024-01-30T09:30:25;102563.76;;;17.26;55.82
83815;BME280;73829;53.826;-3.034;2024-01-30T09:32:56;102565.67;;;17.27;55.62
83815;BME280;73829;53.826;-3.034;2024-01-30T09:35:27;102574.10;;;17.29;55.47
83815;BME280;73829;53.826;-3.034;2024-01-30T09:37:58;102583.39;;;17.32;55.53
83815;BME280;73829;53.826;-3.034;2024-01-30T09:40:30;102588.83;;;17.33;55.47
83815;BME280;73829;53.826;-3.034;2024-01-30T09:43:01;102590.20;;;17.35;55.55
83815;BME280;73829;53.826;-3.034;2024-01-30T09:45:33;102595.66;;;17.36;55.37
83815;BME280;73829;53.826;-3.034;2024-01-30T09:48:06;102600.20;;;17.37;55.40
83815;BME280;73829;53.826;-3.034;2024-01-30T09:50:38;102602.67;;;17.38;55.60
83815;BME280;73829;53.826;-3.034;2024-01-30T09:53:09;102611.80;;;17.39;55.71
83815;BME280;73829;53.826;-3.034;2024-01-30T09:55:44;102614.61;;;17.40;55.42
83815;BME280;73829;53.826;-3.034;2024-01-30T09:58:17;102618.28;;;17.41;55.43
83815;BME280;73829;53.826;-3.034;2024-01-30T10:00:48;102619.15;;;17.42;55.53
83815;BME280;73829;53.826;-3.034;2024-01-30T10:03:19;102622.14;;;17.43;55.32
83815;BME280;73829;53.826;-3.034;2024-01-30T10:05:52;102625.48;;;17.43;55.50
83815;BME280;73829;53.826;-3.034;2024-01-30T10:08:23;102628.48;;;17.44;55.39
83815;BME280;73829;53.826;-3.034;2024-01-30T10:10:55;102635.14;;;17.45;55.20
83815;BME280;73829;53.826;-3.034;2024-01-30T10:13:26;102640.07;;;17.46;55.30
83815;BME280;73829;53.826;-3.034;2024-01-30T10:15:58;102637.42;;;17.46;55.30
83815;BME280;73829;53.826;-3.034;2024-01-30T10:18:31;102643.55;;;17.47;55.48
83815;BME280;73829;53.826;-3.034;2024-01-30T10:21:03;102651.82;;;17.49;55.22
83815;BME280;73829;53.826;-3.034;2024-01-30T10:23:35;102653.55;;;17.50;55.32
83815;BME280;73829;53.826;-3.034;2024-01-30T10:26:08;102654.95;;;17.51;55.09
83815;BME280;73829;53.826;-3.034;2024-01-30T10:28:39;102645.77;;;17.53;55.27
83815;BME280;73829;53.826;-3.034;2024-01-30T10:31:10;102646.83;;;17.53;55.15
83815;BME280;73829;53.826;-3.034;2024-01-30T10:33:41;102651.73;;;17.56;55.10
83815;BME280;73829;53.826;-3.034;2024-01-30T10:36:14;102659.10;;;17.57;55.06
83815;BME280;73829;53.826;-3.034;2024-01-30T10:38:48;102665.60;;;17.58;55.18
83815;BME280;73829;53.826;-3.034;2024-01-30T10:41:27;102672.27;;;17.59;54.97
83815;BME280;73829;53.826;-3.034;2024-01-30T10:44:05;102680.00;;;17.61;54.94
83815;BME280;73829;53.826;-3.034;2024-01-30T10:46:39;102679.30;;;17.62;55.07
83815;BME280;73829;53.826;-3.034;2024-01-30T10:49:13;102686.13;;;17.64;55.06
83815;BME280;73829;53.826;-3.034;2024-01-30T10:51:46;102685.95;;;17.64;54.88
83815;BME280;73829;53.826;-3.034;2024-01-30T10:54:19;102697.38;;;17.65;54.94
83815;BME280;73829;53.826;-3.034;2024-01-30T10:56:51;102701.08;;;17.65;54.83
83815;BME280;73829;53.826;-3.034;2024-01-30T10:59:24;102707.23;;;17.66;54.79
83815;BME280;73829;53.826;-3.034;2024-01-30T11:01:57;102712.51;;;17.66;54.66
83815;BME280;73829;53.826;-3.034;2024-01-30T11:04:28;102714.98;;;17.66;54.88
83815;BME280;73829;53.826;-3.034;2024-01-30T11:07:15;102717.25;;;17.68;54.90
83815;BME280;73829;53.826;-3.034;2024-01-30T11:09:52;102721.80;;;17.69;54.94
83815;BME280;73829;53.826;-3.034;2024-01-30T11:12:27;102730.95;;;17.69;54.82
83815;BME280;73829;53.826;-3.034;2024-01-30T11:15:07;102734.99;;;17.70;54.83
83815;BME280;73829;53.826;-3.034;2024-01-30T11:17:51;102748.01;;;17.71;54.73
83815;BME280;73829;53.826;-3.034;2024-01-30T11:20:25;102758.04;;;17.71;54.63
83815;BME280;73829;53.826;-3.034;2024-01-30T11:22:58;102761.55;;;17.72;54.66
83815;BME280;73829;53.826;-3.034;2024-01-30T11:25:32;102762.26;;;17.72;54.67
83815;BME280;73829;53.826;-3.034;2024-01-30T11:28:04;102764.36;;;17.73;54.73
83815;BME280;73829;53.826;-3.034;2024-01-30T11:30:35;102765.77;;;17.73;54.72
83815;BME280;73829;53.826;-3.034;2024-01-30T11:33:08;102758.55;;;17.74;54.71
83815;BME280;73829;53.826;-3.034;2024-01-30T11:35:43;102755.89;;;17.74;54.69
83815;BME280;73829;53.826;-3.034;2024-01-30T11:38:16;102760.30;;;17.75;54.67
83815;BME280;73829;53.826;-3.034;2024-01-30T11:40:47;102759.25;;;17.75;54.61
83815;BME280;73829;53.826;-3.034;2024-01-30T11:43:19;102763.80;;;17.76;54.62
83815;BME280;73829;53.826;-3.034;2024-01-30T11:45:50;102768.38;;;17.78;54.64
83815;BME280;73829;53.826;-3.034;2024-01-30T11:48:22;102769.09;;;17.79;54.71
83815;BME280;73829;53.826;-3.034;2024-01-30T11:50:54;102767.84;;;17.79;54.66
83815;BME280;73829;53.826;-3.034;2024-01-30T11:53:26;102761.51;;;17.79;54.77
83815;BME280;73829;53.826;-3.034;2024-01-30T11:56:00;102758.84;;;17.80;54.79
83815;BME280;73829;53.826;-3.034;2024-01-30T11:58:31;102761.14;;;17.81;54.54
83815;BME280;73829;53.826;-3.034;2024-01-30T12:01:02;102765.55;;;17.81;54.77
83815;BME280;73829;53.826;-3.034;2024-01-30T12:03:33;102759.90;;;17.81;54.76
83815;BME280;73829;53.826;-3.034;2024-01-30T12:06:06;102760.42;;;17.81;54.60
83815;BME280;73829;53.826;-3.034;2024-01-30T12:08:37;102763.24;;;17.81;54.72
83815;BME280;73829;53.826;-3.034;2024-01-30T12:11:09;102770.99;;;17.80;54.68
83815;BME280;73829;53.826;-3.034;2024-01-30T12:13:40;102769.41;;;17.80;54.56
83815;BME280;73829;53.826;-3.034;2024-01-30T12:16:12;102771.71;;;17.79;54.40
83815;BME280;73829;53.826;-3.034;2024-01-30T12:18:44;102770.30;;;17.79;54.30
83815;BME280;73829;53.826;-3.034;2024-01-30T12:21:17;102771.71;;;17.79;54.30
83815;BME280;73829;53.826;-3.034;2024-01-30T12:23:48;102770.32;;;17.79;54.39
83815;BME280;73829;53.826;-3.034;2024-01-30T12:26:19;102774.71;;;17.79;54.33
83815;BME280;73829;53.826;-3.034;2024-01-30T12:28:53;102775.95;;;17.78;54.25
83815;BME280;73829;53.826;-3.034;2024-01-30T12:31:28;102780.17;;;17.78;54.24
83815;BME280;73829;53.826;-3.034;2024-01-30T12:34:00;102786.34;;;17.77;54.23
83815;BME280;73829;53.826;-3.034;2024-01-30T12:36:32;102791.11;;;17.76;54.26
83815;BME280;73829;53.826;-3.034;2024-01-30T12:39:03;102795.86;;;17.76;54.21
83815;BME280;73829;53.826;-3.034;2024-01-30T12:41:36;102802.02;;;17.75;54.22
83815;BME280;73829;53.826;-3.034;2024-01-30T12:44:07;102804.48;;;17.75;54.23
83815;BME280;73829;53.826;-3.034;2024-01-30T12:46:38;102803.60;;;17.75;54.30
83815;BME280;73829;53.826;-3.034;2024-01-30T12:49:10;102805.01;;;17.75;54.37
83815;BME280;73829;53.826;-3.034;2024-01-30T12:51:41;102806.77;;;17.75;54.36
83815;BME280;73829;53.826;-3.034;2024-01-30T12:54:14;102805.20;;;17.74;54.53
83815;BME280;73829;53.826;-3.034;2024-01-30T12:56:45;102806.06;;;17.75;54.51
83815;BME280;73829;53.826;-3.034;2024-01-30T12:59:16;102810.65;;;17.75;54.49
83815;BME280;73829;53.826;-3.034;2024-01-30T13:01:47;102819.27;;;17.76;54.47
83815;BME280;73829;53.826;-3.034;2024-01-30T13:04:18;102814.16;;;17.75;54.44
83815;BME280;73829;53.826;-3.034;2024-01-30T13:06:49;102813.98;;;17.74;54.67